createdAt,value
2022-11-29T00:01:46.884Z,3.25
2022-11-29T00:04:22.981Z,2.36
2022-11-29T00:06:50.927Z,2.13
2022-11-29T00:09:24.922Z,3.56
2022-11-29T00:12:11.295Z,5.11
2022-11-29T00:14:39.815Z,5.89
2022-11-29T00:17:07.888Z,5.94
2022-11-29T00:19:41.430Z,4.55
2022-11-29T00:22:19.493Z,3.15
2022-11-29T00:24:54.420Z,2.18
2022-11-29T00:27:22.391Z,1.88
2022-11-29T00:29:50.510Z,3.35
2022-11-29T00:32:18.501Z,4.78
2022-11-29T00:34:46.523Z,5.65
2022-11-29T00:37:15.973Z,5.92
2022-11-29T00:39:43.865Z,4.59
2022-11-29T00:42:11.794Z,3.26
2022-11-29T00:44:39.784Z,2.30
2022-11-29T00:47:07.633Z,1.98
2022-11-29T00:49:35.539Z,3.49
2022-11-29T00:52:03.599Z,5.16
2022-11-29T00:54:33.938Z,6.09
2022-11-29T00:57:02.975Z,5.96
2022-11-29T00:59:30.953Z,4.46
2022-11-29T01:01:58.850Z,3.17
2022-11-29T01:04:26.870Z,2.24
2022-11-29T01:06:54.800Z,1.99
2022-11-29T01:09:22.704Z,3.44
2022-11-29T01:11:50.805Z,4.95
2022-11-29T01:14:18.727Z,5.74
2022-11-29T01:16:46.655Z,5.80
2022-11-29T01:19:14.615Z,4.35
2022-11-29T01:21:42.519Z,3.00
2022-11-29T01:24:10.495Z,2.11
2022-11-29T01:26:38.416Z,1.79
2022-11-29T01:29:06.328Z,3.23
2022-11-29T01:31:38.014Z,4.98
2022-11-29T01:34:07.262Z,6.08
2022-11-29T01:36:35.444Z,5.91
2022-11-29T01:39:04.934Z,4.39
2022-11-29T01:41:35.963Z,3.10
2022-11-29T01:44:06.115Z,2.20
2022-11-29T01:46:40.429Z,1.84
2022-11-29T01:49:13.266Z,3.33
2022-11-29T01:51:45.922Z,4.96
2022-11-29T01:54:14.697Z,5.88
2022-11-29T01:56:45.292Z,5.95
2022-11-29T01:59:15.845Z,4.51
2022-11-29T02:01:43.810Z,3.19
2022-11-29T02:04:12.261Z,2.30
2022-11-29T02:06:41.579Z,1.93
2022-11-29T02:09:21.892Z,3.31
2022-11-29T02:12:08.349Z,4.90
2022-11-29T02:14:45.558Z,5.97
2022-11-29T02:17:32.211Z,5.53
2022-11-29T02:20:05.798Z,3.84
2022-11-29T02:22:43.984Z,2.65
2022-11-29T02:25:38.099Z,1.79
2022-11-29T02:28:33.010Z,1.69
2022-11-29T02:31:38.283Z,3.57
2022-11-29T02:34:12.120Z,4.96
2022-11-29T02:37:11.650Z,5.22
2022-11-29T02:40:06.788Z,3.62
2022-11-29T02:42:55.688Z,2.15
2022-11-29T02:45:36.134Z,1.22
2022-11-29T02:48:34.937Z,1.05
2022-11-29T02:51:11.473Z,3.24
2022-11-29T02:54:00.288Z,5.07
2022-11-29T02:56:52.428Z,5.64
2022-11-29T02:59:45.164Z,3.94
2022-11-29T03:02:36.005Z,2.46
2022-11-29T03:05:12.116Z,1.50
2022-11-29T03:07:56.659Z,1.33
2022-11-29T03:10:35.217Z,3.45
2022-11-29T03:13:10.347Z,5.17
2022-11-29T03:16:08.694Z,5.51
2022-11-29T03:19:15.583Z,3.82
2022-11-29T03:22:02.159Z,2.31
2022-11-29T03:24:37.215Z,1.43
2022-11-29T03:27:12.352Z,1.31
2022-11-29T03:29:47.865Z,3.23
2022-11-29T03:32:38.621Z,5.04
2022-11-29T03:35:13.376Z,5.95
2022-11-29T03:37:58.621Z,5.12
2022-11-29T03:40:39.064Z,3.35
2022-11-29T03:43:14.274Z,2.16
2022-11-29T03:46:33.116Z,1.72
2022-11-29T03:49:31.434Z,3.83
2022-11-29T03:52:08.509Z,5.19
2022-11-29T03:55:13.839Z,5.41
2022-11-29T03:57:41.691Z,3.71
2022-11-29T04:00:13.542Z,2.47
2022-11-29T04:03:22.240Z,1.94
2022-11-29T04:06:02.266Z,3.64
2022-11-29T04:08:42.139Z,5.03
2022-11-29T04:11:32.509Z,5.55
2022-11-29T04:14:30.917Z,3.97
2022-11-29T04:17:17.440Z,2.48
2022-11-29T04:19:45.300Z,1.58
2022-11-29T04:22:43.773Z,1.35
2022-11-29T04:25:55.469Z,3.54
2022-11-29T04:28:37.290Z,5.45
2022-11-29T04:31:23.388Z,5.61
2022-11-29T04:34:28.234Z,3.92
2022-11-29T04:37:33.226Z,2.34
2022-11-29T04:40:16.294Z,1.32
2022-11-29T04:43:02.129Z,0.66
2022-11-29T04:45:48.695Z,0.79
2022-11-29T04:48:53.730Z,3.21
2022-11-29T04:51:35.345Z,4.96
2022-11-29T04:54:19.359Z,4.98
2022-11-29T04:57:02.105Z,3.29
2022-11-29T05:00:06.376Z,1.85
2022-11-29T05:02:42.930Z,0.78
2022-11-29T05:05:22.788Z,0.12
2022-11-29T05:07:56.615Z,0.11
2022-11-29T05:10:41.868Z,2.26
2022-11-29T05:13:22.298Z,4.27
2022-11-29T05:16:20.804Z,4.76
2022-11-29T05:19:07.529Z,3.05
2022-11-29T05:21:47.526Z,1.62
2022-11-29T05:24:49.743Z,0.64
2022-11-29T05:27:52.483Z,0.61
2022-11-29T05:30:25.675Z,3.23
2022-11-29T05:33:08.578Z,4.43
2022-11-29T05:35:51.595Z,2.89
2022-11-29T05:38:34.568Z,1.32
2022-11-29T05:41:36.418Z,0.23
2022-11-29T05:44:22.639Z,0.14
2022-11-29T05:46:56.745Z,2.38
2022-11-29T05:50:01.834Z,3.92
2022-11-29T05:52:35.635Z,5.03
2022-11-29T05:55:37.361Z,4.82
2022-11-29T05:58:34.935Z,2.76
2022-11-29T06:01:16.850Z,1.11
2022-11-29T06:04:14.813Z,0.63
2022-11-29T06:06:50.578Z,2.81
2022-11-29T06:09:42.466Z,4.19
2022-11-29T06:12:20.776Z,4.46
2022-11-29T06:15:04.415Z,2.85
2022-11-29T06:17:52.812Z,1.32
2022-11-29T06:20:52.221Z,1.00
2022-11-29T06:23:31.489Z,3.26
2022-11-29T06:26:10.430Z,4.52
2022-11-29T06:28:56.154Z,5.21
2022-11-29T06:31:29.869Z,3.77
2022-11-29T06:34:10.224Z,2.08
2022-11-29T06:37:08.757Z,0.97
2022-11-29T06:39:36.904Z,0.84
2022-11-29T06:42:04.927Z,2.72
2022-11-29T06:44:33.079Z,4.30
2022-11-29T06:47:14.911Z,5.25
2022-11-29T06:50:01.273Z,5.40
2022-11-29T06:52:38.086Z,3.60
2022-11-29T06:55:17.904Z,2.22
2022-11-29T06:58:04.029Z,1.26
2022-11-29T07:00:42.081Z,1.12
2022-11-29T07:03:37.233Z,3.23
2022-11-29T07:06:15.442Z,4.87
2022-11-29T07:08:43.784Z,5.25
2022-11-29T07:11:14.162Z,3.85
2022-11-29T07:13:42.282Z,2.32
2022-11-29T07:16:34.428Z,1.69
2022-11-29T07:19:08.474Z,3.47
2022-11-29T07:21:48.601Z,4.88
2022-11-29T07:24:34.137Z,5.81
2022-11-29T07:27:23.211Z,5.12
2022-11-29T07:30:19.182Z,3.20
2022-11-29T07:33:02.236Z,1.77
2022-11-29T07:36:15.237Z,1.49
2022-11-29T07:38:55.062Z,3.87
2022-11-29T07:41:41.587Z,5.23
2022-11-29T07:44:25.520Z,5.56
2022-11-29T07:46:53.436Z,3.77
2022-11-29T07:49:21.402Z,2.34
2022-11-29T07:51:49.532Z,1.77
2022-11-29T07:54:19.813Z,3.28
2022-11-29T07:56:47.751Z,4.93
2022-11-29T07:59:15.678Z,5.56
2022-11-29T08:01:43.580Z,4.29
2022-11-29T08:04:11.510Z,2.83
2022-11-29T08:06:39.636Z,2.25
2022-11-29T08:09:07.750Z,3.84
2022-11-29T08:11:35.715Z,5.44
2022-11-29T08:14:05.187Z,5.92
2022-11-29T08:16:33.274Z,4.54
2022-11-29T08:19:01.268Z,3.16
2022-11-29T08:21:29.193Z,2.34
2022-11-29T08:23:57.101Z,3.45
2022-11-29T08:26:29.818Z,5.13
2022-11-29T08:28:59.271Z,6.23
2022-11-29T08:31:33.787Z,6.16
2022-11-29T08:34:08.593Z,4.54
2022-11-29T08:36:42.660Z,3.27
2022-11-29T08:39:18.620Z,2.38
2022-11-29T08:41:46.766Z,2.21
2022-11-29T08:44:19.389Z,4.06
2022-11-29T08:47:05.545Z,5.86
2022-11-29T08:49:33.541Z,6.42
2022-11-29T08:52:20.058Z,4.95
2022-11-29T08:54:48.296Z,3.46
2022-11-29T08:57:39.223Z,2.56
2022-11-29T09:00:10.649Z,2.45
2022-11-29T09:02:39.326Z,4.45
2022-11-29T09:05:13.058Z,5.86
2022-11-29T09:07:50.799Z,6.29
2022-11-29T09:10:26.255Z,4.73
2022-11-29T09:12:59.064Z,3.33
2022-11-29T09:15:32.743Z,2.44
2022-11-29T09:18:00.700Z,2.38
2022-11-29T09:20:28.660Z,4.28
2022-11-29T09:22:58.990Z,6.12
2022-11-29T09:25:27.154Z,6.63
2022-11-29T09:27:58.211Z,5.20
2022-11-29T09:30:26.575Z,3.84
2022-11-29T09:32:54.560Z,2.97
2022-11-29T09:35:22.447Z,2.81
2022-11-29T09:37:50.458Z,4.64
2022-11-29T09:40:21.269Z,6.14
2022-11-29T09:43:22.335Z,6.44
2022-11-29T09:45:57.455Z,4.82
2022-11-29T09:48:32.576Z,3.49
2022-11-29T09:51:08.738Z,3.20
2022-11-29T09:53:46.435Z,5.16
2022-11-29T09:56:49.544Z,6.63
2022-11-29T09:59:23.735Z,6.76
2022-11-29T10:02:18.391Z,5.17
2022-11-29T10:05:02.653Z,3.69
2022-11-29T10:07:39.308Z,3.62
2022-11-29T10:10:15.705Z,5.56
2022-11-29T10:12:52.089Z,6.99
2022-11-29T10:15:22.635Z,7.51
2022-11-29T10:18:01.138Z,6.11
2022-11-29T10:20:36.508Z,4.69
2022-11-29T10:23:33.134Z,4.25
2022-11-29T10:26:01.211Z,6.18
2022-11-29T10:28:32.835Z,7.46
2022-11-29T10:31:22.491Z,7.57
2022-11-29T10:33:50.853Z,6.06
2022-11-29T10:36:29.732Z,4.74
2022-11-29T10:39:01.674Z,4.41
2022-11-29T10:41:29.693Z,5.92
2022-11-29T10:43:59.889Z,7.08
2022-11-29T10:46:31.522Z,7.39
2022-11-29T10:49:05.238Z,6.12
2022-11-29T10:51:34.013Z,4.84
2022-11-29T10:54:41.884Z,4.01
2022-11-29T10:57:15.480Z,4.25
2022-11-29T11:00:08.813Z,6.30
2022-11-29T11:02:37.560Z,7.61
2022-11-29T11:05:18.955Z,7.65
2022-11-29T11:07:57.261Z,6.06
2022-11-29T11:10:29.749Z,4.63
2022-11-29T11:13:07.095Z,4.12
2022-11-29T11:15:35.166Z,5.70
2022-11-29T11:18:06.799Z,6.86
2022-11-29T11:20:41.911Z,7.08
2022-11-29T11:23:27.429Z,5.64
2022-11-29T11:26:05.910Z,4.28
2022-11-29T11:28:42.555Z,3.84
2022-11-29T11:31:12.636Z,5.50
2022-11-29T11:33:41.617Z,7.13
2022-11-29T11:36:27.459Z,7.51
2022-11-29T11:38:58.437Z,5.99
2022-11-29T11:41:49.422Z,4.79
2022-11-29T11:44:52.594Z,4.68
2022-11-29T11:47:29.873Z,7.20
2022-11-29T11:50:00.710Z,8.71
2022-11-29T11:52:53.395Z,8.06
2022-11-29T11:55:21.490Z,7.11
2022-11-29T11:58:13.888Z,6.50
2022-11-29T12:01:03.904Z,6.27
2022-11-29T12:04:10.388Z,6.55
2022-11-29T12:06:52.316Z,7.28
2022-11-29T12:09:35.410Z,8.19
2022-11-29T12:12:10.128Z,9.34
2022-11-29T12:14:55.792Z,10.39
2022-11-29T12:17:34.511Z,11.31
2022-11-29T12:20:41.004Z,12.13
2022-11-29T12:23:09.062Z,12.83
2022-11-29T12:25:56.068Z,13.16
2022-11-29T12:28:34.393Z,13.39
2022-11-29T12:31:19.263Z,13.31
2022-11-29T12:34:24.484Z,13.08
2022-11-29T12:37:20.165Z,12.56
2022-11-29T12:40:11.802Z,11.96
2022-11-29T12:42:54.905Z,11.34
2022-11-29T12:45:25.907Z,10.85
2022-11-29T12:47:53.819Z,10.35
2022-11-29T12:50:21.755Z,9.97
2022-11-29T12:53:14.524Z,9.68
2022-11-29T12:55:58.986Z,9.24
2022-11-29T12:58:51.653Z,8.64
2022-11-29T13:01:47.993Z,7.85
2022-11-29T13:04:49.278Z,7.24
2022-11-29T13:07:26.452Z,6.83
2022-11-29T13:10:35.902Z,6.54
2022-11-29T13:13:25.405Z,6.26
2022-11-29T13:19:39.309Z,6.14
2022-11-29T13:22:22.365Z,6.25
2022-11-29T13:24:57.686Z,6.59
2022-11-29T13:27:32.260Z,6.49
2022-11-29T13:30:01.032Z,5.94
2022-11-29T13:32:35.260Z,5.20
2022-11-29T13:35:19.208Z,4.45
2022-11-29T13:37:57.382Z,3.68
2022-11-29T13:40:46.811Z,3.60
2022-11-29T13:43:17.758Z,5.60
2022-11-29T13:45:48.491Z,6.97
2022-11-29T13:48:28.409Z,7.68
2022-11-29T13:50:57.757Z,7.42
2022-11-29T13:53:45.254Z,5.80
2022-11-29T13:56:48.595Z,4.20
2022-11-29T13:59:27.723Z,3.73
2022-11-29T14:01:57.117Z,5.56
2022-11-29T14:04:27.661Z,6.67
2022-11-29T14:07:12.571Z,6.91
2022-11-29T14:09:43.434Z,5.25
2022-11-29T14:12:27.075Z,3.84
2022-11-29T14:15:16.712Z,3.30
2022-11-29T14:17:53.777Z,5.01
2022-11-29T14:20:30.457Z,6.46
2022-11-29T14:23:04.638Z,7.25
2022-11-29T14:25:51.265Z,7.10
2022-11-29T14:28:22.908Z,5.29
2022-11-29T14:30:55.018Z,3.83
2022-11-29T14:33:37.340Z,3.25
2022-11-29T14:36:23.728Z,4.88
2022-11-29T14:39:04.461Z,6.25
2022-11-29T14:42:01.537Z,6.96
2022-11-29T14:44:32.076Z,6.71
2022-11-29T14:47:26.560Z,5.10
2022-11-29T14:49:57.018Z,3.51
2022-11-29T14:52:29.126Z,2.98
2022-11-29T14:55:20.402Z,4.36
2022-11-29T14:57:48.435Z,5.85
2022-11-29T15:00:19.234Z,6.56
2022-11-29T15:03:21.335Z,6.61
2022-11-29T15:05:57.691Z,4.77
2022-11-29T15:08:35.721Z,3.31
2022-11-29T15:11:32.187Z,2.79
2022-11-29T15:14:07.459Z,4.67
2022-11-29T15:17:19.605Z,6.07
2022-11-29T15:20:22.117Z,6.62
2022-11-29T15:22:55.484Z,5.21
2022-11-29T15:25:26.396Z,3.63
2022-11-29T15:28:06.144Z,2.97
2022-11-29T15:30:39.560Z,4.55
2022-11-29T15:33:19.325Z,5.92
2022-11-29T15:36:08.667Z,6.16
2022-11-29T15:38:50.616Z,4.49
2022-11-29T15:41:35.658Z,3.04
2022-11-29T15:44:06.993Z,2.61
2022-11-29T15:46:35.866Z,4.11
2022-11-29T15:49:31.179Z,5.52
2022-11-29T15:52:05.726Z,6.50
2022-11-29T15:54:38.900Z,6.94
2022-11-29T15:57:16.024Z,6.79
2022-11-29T15:59:53.737Z,5.03
2022-11-29T16:02:31.362Z,3.43
2022-11-29T16:05:25.223Z,2.94
2022-11-29T16:07:57.591Z,4.59
2022-11-29T16:10:52.722Z,5.74
2022-11-29T16:13:39.122Z,6.46
2022-11-29T16:16:13.439Z,6.31
2022-11-29T16:18:44.262Z,4.59
2022-11-29T16:21:25.237Z,3.23
2022-11-29T16:23:54.045Z,2.93
2022-11-29T16:26:35.955Z,4.64
2022-11-29T16:29:04.787Z,5.80
2022-11-29T16:31:35.701Z,5.94
2022-11-29T16:34:14.123Z,4.45
2022-11-29T16:36:42.159Z,3.52
2022-11-29T16:39:23.238Z,4.85
2022-11-29T16:42:08.869Z,6.01
2022-11-29T16:44:39.781Z,6.02
2022-11-29T16:47:18.810Z,4.46
2022-11-29T16:50:09.644Z,3.43
2022-11-29T16:52:37.567Z,5.01
2022-11-29T16:55:05.617Z,5.99
2022-11-29T16:57:33.849Z,6.59
2022-11-29T17:00:01.958Z,6.71
2022-11-29T17:02:30.245Z,5.18
2022-11-29T17:04:58.646Z,3.67
2022-11-29T17:07:32.147Z,3.13
2022-11-29T17:10:00.364Z,4.74
2022-11-29T17:12:28.276Z,6.18
2022-11-29T17:14:56.314Z,7.03
2022-11-29T17:17:24.226Z,7.05
2022-11-29T17:19:52.144Z,5.35
2022-11-29T17:22:20.103Z,3.86
2022-11-29T17:24:48.790Z,3.28
2022-11-29T17:27:16.865Z,4.70
2022-11-29T17:29:44.782Z,6.04
2022-11-29T17:32:12.741Z,6.76
2022-11-29T17:34:40.726Z,6.81
2022-11-29T17:37:08.626Z,5.29
2022-11-29T17:39:36.559Z,3.90
2022-11-29T17:42:04.554Z,3.41
2022-11-29T17:44:34.001Z,4.88
2022-11-29T17:47:01.890Z,6.05
2022-11-29T17:49:29.816Z,6.69
2022-11-29T17:51:57.756Z,6.54
2022-11-29T17:54:26.072Z,5.01
2022-11-29T17:56:54.299Z,3.63
2022-11-29T17:59:22.296Z,3.15
2022-11-29T18:01:50.246Z,4.72
2022-11-29T18:04:18.460Z,6.13
2022-11-29T18:06:50.267Z,7.04
2022-11-29T18:09:19.794Z,6.94
2022-11-29T18:11:49.975Z,5.10
2022-11-29T18:14:22.751Z,4.07
2022-11-29T18:16:52.084Z,5.33
2022-11-29T18:19:22.105Z,6.45
2022-11-29T18:21:50.569Z,6.98
2022-11-29T18:24:18.863Z,7.00
2022-11-29T18:26:47.210Z,5.59
2022-11-29T18:29:15.347Z,4.18
2022-11-29T18:31:45.227Z,4.33
2022-11-29T18:34:14.674Z,5.70
2022-11-29T18:36:48.549Z,6.64
2022-11-29T18:39:19.701Z,7.23
2022-11-29T18:41:49.537Z,7.34
2022-11-29T18:44:19.963Z,5.91
2022-11-29T18:46:48.107Z,4.45
2022-11-29T18:49:20.962Z,3.91
2022-11-29T18:51:49.984Z,5.44
2022-11-29T18:54:19.251Z,6.70
2022-11-29T18:56:50.180Z,7.41
2022-11-29T18:59:18.365Z,7.26
2022-11-29T19:01:48.551Z,5.62
2022-11-29T19:04:19.422Z,4.39
2022-11-29T19:06:48.259Z,5.27
2022-11-29T19:09:20.930Z,6.41
2022-11-29T19:11:52.195Z,7.09
2022-11-29T19:14:20.212Z,7.10
2022-11-29T19:16:50.870Z,5.55
2022-11-29T19:19:19.073Z,4.08
2022-11-29T19:21:47.885Z,3.51
2022-11-29T19:24:17.994Z,5.03
2022-11-29T19:26:48.131Z,6.34
2022-11-29T19:29:17.400Z,7.07
2022-11-29T19:31:45.451Z,7.10
2022-11-29T19:34:13.925Z,5.67
2022-11-29T19:36:43.730Z,4.24
2022-11-29T19:39:17.039Z,3.72
2022-11-29T19:41:47.046Z,5.34
2022-11-29T19:44:15.293Z,6.59
2022-11-29T19:46:48.823Z,7.32
2022-11-29T19:49:16.921Z,7.45
2022-11-29T19:51:44.872Z,5.96
2022-11-29T19:54:13.147Z,4.38
2022-11-29T19:56:41.157Z,3.90
2022-11-29T19:59:09.387Z,5.36
2022-11-29T20:01:42.675Z,6.52
2022-11-29T20:04:13.380Z,7.17
2022-11-29T20:06:41.834Z,7.23
2022-11-29T20:09:12.176Z,5.77
2022-11-29T20:11:40.107Z,4.27
2022-11-29T20:14:10.539Z,4.23
2022-11-29T20:16:39.263Z,5.71
2022-11-29T20:19:13.161Z,6.56
2022-11-29T20:21:47.812Z,7.03
2022-11-29T20:24:16.726Z,6.81
2022-11-29T20:26:46.824Z,5.25
2022-11-29T20:29:15.953Z,3.94
2022-11-29T20:31:50.043Z,4.79
2022-11-29T20:34:20.696Z,6.08
2022-11-29T20:37:43.614Z,6.80
2022-11-29T20:40:14.800Z,6.26
2022-11-29T20:43:15.898Z,4.65
2022-11-29T20:45:44.106Z,4.06
2022-11-29T20:48:22.893Z,5.45
2022-11-29T20:50:58.458Z,6.72
2022-11-29T20:53:35.673Z,7.36
2022-11-29T20:56:05.286Z,7.39
2022-11-29T20:58:33.463Z,5.86
2022-11-29T21:01:01.836Z,4.40
2022-11-29T21:03:30.296Z,3.80
2022-11-29T21:06:02.124Z,5.06
2022-11-29T21:08:30.219Z,6.37
2022-11-29T21:11:06.900Z,7.10
2022-11-29T21:13:35.266Z,7.04
2022-11-29T21:16:03.790Z,5.61
2022-11-29T21:18:32.441Z,4.11
2022-11-29T21:21:54.005Z,3.59
2022-11-29T21:24:34.185Z,5.79
2022-11-29T21:27:03.302Z,6.98
2022-11-29T21:29:31.528Z,7.57
2022-11-29T21:32:00.992Z,7.61
2022-11-29T21:34:30.639Z,6.07
2022-11-29T21:36:59.861Z,4.68
2022-11-29T21:39:33.873Z,4.23
2022-11-29T21:42:02.882Z,5.69
2022-11-29T21:44:30.892Z,7.14
2022-11-29T21:46:58.899Z,6.96
2022-11-29T21:49:26.812Z,5.32
2022-11-29T21:51:57.638Z,3.99
2022-11-29T21:54:25.964Z,3.57
2022-11-29T21:56:54.331Z,5.10
2022-11-29T21:59:24.917Z,6.29
2022-11-29T22:01:52.992Z,7.08
2022-11-29T22:04:21.095Z,7.05
2022-11-29T22:06:49.057Z,5.54
2022-11-29T22:09:17.119Z,4.43
2022-11-29T22:11:45.730Z,5.36
2022-11-29T22:14:18.932Z,6.40
2022-11-29T22:16:51.645Z,7.02
2022-11-29T22:19:21.941Z,6.87
2022-11-29T22:21:52.414Z,5.18
2022-11-29T22:24:22.973Z,4.25
2022-11-29T22:26:52.193Z,5.62
2022-11-29T22:29:20.736Z,6.64
2022-11-29T22:31:53.051Z,6.55
2022-11-29T22:34:22.854Z,5.01
2022-11-29T22:36:51.052Z,3.72
2022-11-29T22:39:19.006Z,4.03
2022-11-29T22:41:53.928Z,5.56
2022-11-29T22:44:23.537Z,6.46
2022-11-29T22:46:51.579Z,7.07
2022-11-29T22:49:19.554Z,7.13
2022-11-29T22:51:47.536Z,5.76
2022-11-29T22:54:16.570Z,4.21
2022-11-29T22:56:45.558Z,3.53
2022-11-29T22:59:14.047Z,4.85
2022-11-29T23:01:42.514Z,5.99
2022-11-29T23:04:12.300Z,6.65
2022-11-29T23:06:45.480Z,7.05
2022-11-29T23:09:17.088Z,7.06
2022-11-29T23:11:46.162Z,5.57
2022-11-29T23:14:14.114Z,4.05
2022-11-29T23:16:42.868Z,3.45
2022-11-29T23:19:11.010Z,4.94
2022-11-29T23:21:40.716Z,6.49
2022-11-29T23:24:09.496Z,7.35
2022-11-29T23:26:40.483Z,7.31
2022-11-29T23:29:19.577Z,5.70
2022-11-29T23:31:49.229Z,4.06
2022-11-29T23:34:17.691Z,3.49
2022-11-29T23:36:51.164Z,5.02
2022-11-29T23:39:21.131Z,6.42
2022-11-29T23:41:49.023Z,7.26
2022-11-29T23:44:17.024Z,7.37
2022-11-29T23:46:44.860Z,5.93
2022-11-29T23:49:12.762Z,4.43
2022-11-29T23:51:40.705Z,3.80
2022-11-29T23:54:08.647Z,5.22
2022-11-29T23:56:36.524Z,6.54
2022-11-29T23:59:04.507Z,7.35
